createdAt,value
2018-07-22T00:01:04.666Z,1014.90
2018-07-22T00:02:32.090Z,1014.92
2018-07-22T00:03:59.396Z,1014.91
2018-07-22T00:05:26.920Z,1014.89
2018-07-22T00:06:54.230Z,1014.88
2018-07-22T00:08:21.569Z,1014.87
2018-07-22T00:09:49.121Z,1014.89
2018-07-22T00:11:16.293Z,1014.88
2018-07-22T00:12:43.781Z,1014.89
2018-07-22T00:14:11.164Z,1014.88
2018-07-22T00:15:38.488Z,1014.88
2018-07-22T00:17:05.819Z,1014.88
2018-07-22T00:18:33.171Z,1014.89
2018-07-22T00:20:00.161Z,1014.90
2018-07-22T00:21:27.698Z,1014.90
2018-07-22T00:22:55.162Z,1014.88
2018-07-22T00:24:22.694Z,1014.88
2018-07-22T00:25:50.338Z,1014.86
2018-07-22T00:27:17.751Z,1014.83
2018-07-22T00:28:44.999Z,1014.84
2018-07-22T00:30:15.550Z,1014.85
2018-07-22T00:31:40.130Z,1014.86
2018-07-22T00:33:07.559Z,1014.85
2018-07-22T00:34:35.131Z,1014.86
2018-07-22T00:36:02.701Z,1014.86
2018-07-22T00:37:29.968Z,1014.87
2018-07-22T00:38:57.335Z,1014.90
2018-07-22T00:40:24.676Z,1014.89
2018-07-22T00:41:52.019Z,1014.89
2018-07-22T00:43:19.356Z,1014.91
2018-07-22T00:44:46.913Z,1014.88
2018-07-22T00:46:14.389Z,1014.87
2018-07-22T00:47:42.037Z,1014.86
2018-07-22T00:49:09.234Z,1014.84
2018-07-22T00:50:36.532Z,1014.85
2018-07-22T00:52:03.910Z,1014.86
2018-07-22T00:53:31.510Z,1014.85
2018-07-22T00:54:58.846Z,1014.86
2018-07-22T00:56:26.137Z,1014.84
2018-07-22T00:57:53.577Z,1014.87
2018-07-22T00:59:21.191Z,1014.89
2018-07-22T01:00:48.557Z,1014.90
2018-07-22T01:02:16.229Z,1014.90
2018-07-22T01:03:43.633Z,1014.90
2018-07-22T01:05:10.686Z,1014.89
2018-07-22T01:06:37.934Z,1014.89
2018-07-22T01:08:05.143Z,1014.88
2018-07-22T01:09:32.530Z,1014.84
2018-07-22T01:10:59.934Z,1014.83
2018-07-22T01:12:27.450Z,1014.85
2018-07-22T01:13:54.606Z,1014.86
2018-07-22T01:15:22.054Z,1014.83
2018-07-22T01:16:49.514Z,1014.84
2018-07-22T01:18:17.142Z,1014.84
2018-07-22T01:19:44.398Z,1014.85
2018-07-22T01:21:11.709Z,1014.86
2018-07-22T01:22:39.091Z,1014.86
2018-07-22T01:24:06.728Z,1014.90
2018-07-22T01:25:34.316Z,1014.90
2018-07-22T01:27:01.559Z,1014.93
2018-07-22T01:28:29.122Z,1014.95
2018-07-22T01:29:56.489Z,1014.97
2018-07-22T01:31:23.733Z,1015.00
2018-07-22T01:32:51.318Z,1015.00
2018-07-22T01:34:18.676Z,1015.01
2018-07-22T01:35:46.286Z,1015.00
2018-07-22T01:37:13.505Z,1015.00
2018-07-22T01:38:40.775Z,1014.99
2018-07-22T01:40:08.143Z,1014.97
2018-07-22T01:41:35.417Z,1014.96
2018-07-22T01:43:02.831Z,1014.96
2018-07-22T01:44:30.434Z,1014.91
2018-07-22T01:45:57.581Z,1014.91
2018-07-22T01:47:24.880Z,1014.92
2018-07-22T01:48:52.392Z,1014.92
2018-07-22T01:50:20.071Z,1014.90
2018-07-22T01:51:47.373Z,1014.88
2018-07-22T01:53:14.709Z,1014.85
2018-07-22T01:54:42.243Z,1014.85
2018-07-22T01:56:09.891Z,1014.85
2018-07-22T01:57:37.233Z,1014.86
2018-07-22T01:59:04.683Z,1014.87
2018-07-22T02:00:32.076Z,1014.86
2018-07-22T02:01:59.621Z,1014.85
2018-07-22T02:03:26.904Z,1014.84
2018-07-22T02:04:54.237Z,1014.83
2018-07-22T02:06:21.618Z,1014.84
2018-07-22T02:07:49.344Z,1014.84
2018-07-22T02:09:16.727Z,1014.85
2018-07-22T02:10:44.309Z,1014.81
2018-07-22T02:12:11.644Z,1014.79
2018-07-22T02:13:39.056Z,1014.76
2018-07-22T02:15:05.896Z,1014.75
2018-07-22T02:16:33.294Z,1014.76
2018-07-22T02:18:00.781Z,1014.74
2018-07-22T02:19:28.223Z,1014.76
2018-07-22T02:20:55.853Z,1014.71
2018-07-22T02:22:23.228Z,1014.73
2018-07-22T02:23:50.782Z,1014.76
2018-07-22T02:25:18.091Z,1014.78
2018-07-22T02:26:45.471Z,1014.79
2018-07-22T02:28:12.848Z,1014.77
2018-07-22T02:29:40.406Z,1014.77
2018-07-22T02:31:07.854Z,1014.77
2018-07-22T02:32:35.248Z,1014.77
2018-07-22T02:34:02.546Z,1014.76
2018-07-22T02:35:30.022Z,1014.75
2018-07-22T02:36:57.276Z,1014.74
2018-07-22T02:38:24.447Z,1014.73
2018-07-22T02:39:51.730Z,1014.74
2018-07-22T02:41:18.904Z,1014.76
2018-07-22T02:42:46.329Z,1014.77
2018-07-22T02:44:13.852Z,1014.79
2018-07-22T02:45:41.249Z,1014.75
2018-07-22T02:47:08.501Z,1014.74
2018-07-22T02:48:35.974Z,1014.74
2018-07-22T02:50:03.552Z,1014.74
2018-07-22T02:51:31.061Z,1014.75
2018-07-22T02:52:58.276Z,1014.77
2018-07-22T02:54:25.773Z,1014.78
2018-07-22T02:55:56.141Z,1014.76
2018-07-22T02:57:20.399Z,1014.77
2018-07-22T02:58:47.436Z,1014.76
2018-07-22T03:00:15.061Z,1014.77
2018-07-22T03:01:42.477Z,1014.77
2018-07-22T03:03:09.806Z,1014.78
2018-07-22T03:04:37.247Z,1014.78
2018-07-22T03:06:04.502Z,1014.80
2018-07-22T03:07:31.839Z,1014.82
2018-07-22T03:08:59.360Z,1014.83
2018-07-22T03:10:26.631Z,1014.84
2018-07-22T03:11:54.209Z,1014.85
2018-07-22T03:13:21.305Z,1014.86
2018-07-22T03:14:48.801Z,1014.89
2018-07-22T03:16:16.339Z,1014.92
2018-07-22T03:17:43.714Z,1014.94
2018-07-22T03:19:11.115Z,1014.95
2018-07-22T03:20:38.752Z,1014.93
2018-07-22T03:22:05.954Z,1014.94
2018-07-22T03:23:33.337Z,1014.92
2018-07-22T03:25:00.666Z,1014.90
2018-07-22T03:26:27.998Z,1014.87
2018-07-22T03:27:55.252Z,1014.85
2018-07-22T03:29:22.702Z,1014.84
2018-07-22T03:30:50.270Z,1014.86
2018-07-22T03:32:17.622Z,1014.86
2018-07-22T03:33:44.973Z,1014.87
2018-07-22T03:35:12.206Z,1014.90
2018-07-22T03:36:39.621Z,1014.91
2018-07-22T03:38:07.037Z,1014.94
2018-07-22T03:39:34.364Z,1014.96
2018-07-22T03:41:01.389Z,1014.97
2018-07-22T03:42:28.801Z,1014.99
2018-07-22T03:43:56.209Z,1014.97
2018-07-22T03:45:23.543Z,1014.94
2018-07-22T03:46:51.116Z,1014.92
2018-07-22T03:48:18.448Z,1014.89
2018-07-22T03:49:45.849Z,1014.89
2018-07-22T03:51:13.345Z,1014.87
2018-07-22T03:52:40.853Z,1014.86
2018-07-22T03:54:08.113Z,1014.87
2018-07-22T03:55:35.404Z,1014.85
2018-07-22T03:57:03.047Z,1014.82
2018-07-22T03:58:30.237Z,1014.87
2018-07-22T03:59:57.505Z,1014.87
2018-07-22T04:01:24.967Z,1014.86
2018-07-22T04:02:52.310Z,1014.87
2018-07-22T04:04:19.925Z,1014.88
2018-07-22T04:05:47.488Z,1014.86
2018-07-22T04:07:14.829Z,1014.86
2018-07-22T04:08:42.206Z,1014.88
2018-07-22T04:10:09.694Z,1014.88
2018-07-22T04:11:37.100Z,1014.89
2018-07-22T04:13:04.245Z,1014.88
2018-07-22T04:14:31.694Z,1014.87
2018-07-22T04:15:59.207Z,1014.90
2018-07-22T04:17:26.849Z,1014.90
2018-07-22T04:18:54.140Z,1014.90
2018-07-22T04:20:21.545Z,1014.90
2018-07-22T04:21:49.086Z,1014.90
2018-07-22T04:23:16.476Z,1014.89
2018-07-22T04:24:44.007Z,1014.87
2018-07-22T04:26:11.558Z,1014.86
2018-07-22T04:27:39.154Z,1014.84
2018-07-22T04:29:06.567Z,1014.80
2018-07-22T04:30:33.902Z,1014.80
2018-07-22T04:32:01.263Z,1014.77
2018-07-22T04:33:28.749Z,1014.77
2018-07-22T04:34:55.803Z,1014.75
2018-07-22T04:36:23.251Z,1014.78
2018-07-22T04:37:50.607Z,1014.76
2018-07-22T04:39:17.951Z,1014.79
2018-07-22T04:40:45.408Z,1014.81
2018-07-22T04:42:12.823Z,1014.82
2018-07-22T04:43:40.288Z,1014.82
2018-07-22T04:45:07.886Z,1014.82
2018-07-22T04:46:35.180Z,1014.84
2018-07-22T04:48:02.354Z,1014.84
2018-07-22T04:49:29.709Z,1014.84
2018-07-22T04:50:57.113Z,1014.82
2018-07-22T04:52:24.323Z,1014.83
2018-07-22T04:53:51.930Z,1014.82
2018-07-22T04:55:19.415Z,1014.81
2018-07-22T04:56:46.576Z,1014.82
2018-07-22T04:58:14.177Z,1014.78
2018-07-22T04:59:41.525Z,1014.79
2018-07-22T05:01:08.708Z,1014.80
2018-07-22T05:02:36.186Z,1014.79
2018-07-22T05:04:03.721Z,1014.80
2018-07-22T05:05:31.240Z,1014.82
2018-07-22T05:06:58.512Z,1014.79
2018-07-22T05:08:25.638Z,1014.80
2018-07-22T05:09:53.184Z,1014.81
2018-07-22T05:11:20.475Z,1014.82
2018-07-22T05:12:47.722Z,1014.84
2018-07-22T05:14:15.209Z,1014.81
2018-07-22T05:15:42.414Z,1014.80
2018-07-22T05:17:10.027Z,1014.80
2018-07-22T05:18:37.195Z,1014.81
2018-07-22T05:20:04.621Z,1014.74
2018-07-22T05:21:31.990Z,1014.74
2018-07-22T05:22:59.480Z,1014.74
2018-07-22T05:24:27.009Z,1014.71
2018-07-22T05:25:54.299Z,1014.72
2018-07-22T05:27:21.991Z,1014.73
2018-07-22T05:28:49.390Z,1014.72
2018-07-22T05:30:17.093Z,1014.72
2018-07-22T05:31:44.287Z,1014.74
2018-07-22T05:33:11.598Z,1014.74
2018-07-22T05:34:39.131Z,1014.73
2018-07-22T05:36:06.711Z,1014.71
2018-07-22T05:37:34.290Z,1014.67
2018-07-22T05:39:01.682Z,1014.67
2018-07-22T05:40:29.097Z,1014.68
2018-07-22T05:41:56.875Z,1014.68
2018-07-22T05:43:24.129Z,1014.65
2018-07-22T05:44:51.530Z,1014.63
2018-07-22T05:46:18.729Z,1014.62
2018-07-22T05:47:45.914Z,1014.63
2018-07-22T05:49:13.197Z,1014.66
2018-07-22T05:50:40.762Z,1014.67
2018-07-22T05:52:08.246Z,1014.62
2018-07-22T05:53:35.586Z,1014.59
2018-07-22T05:55:03.032Z,1014.59
2018-07-22T05:56:31.749Z,1014.62
2018-07-22T05:57:57.738Z,1014.60
2018-07-22T05:59:25.245Z,1014.55
2018-07-22T06:00:52.713Z,1014.57
2018-07-22T06:02:20.094Z,1014.55
2018-07-22T06:03:47.710Z,1014.57
2018-07-22T06:05:15.088Z,1014.55
2018-07-22T06:06:42.557Z,1014.55
2018-07-22T06:08:09.619Z,1014.55
2018-07-22T06:09:37.179Z,1014.55
2018-07-22T06:11:04.631Z,1014.58
2018-07-22T06:12:32.061Z,1014.58
2018-07-22T06:13:59.089Z,1014.58
2018-07-22T06:15:26.529Z,1014.55
2018-07-22T06:16:53.874Z,1014.52
2018-07-22T06:18:21.594Z,1014.49
2018-07-22T06:19:48.764Z,1014.45
2018-07-22T06:21:16.354Z,1014.46
2018-07-22T06:22:43.636Z,1014.46
2018-07-22T06:24:11.267Z,1014.45
2018-07-22T06:25:38.802Z,1014.44
2018-07-22T06:27:06.327Z,1014.45
2018-07-22T06:28:33.751Z,1014.46
2018-07-22T06:30:01.121Z,1014.42
2018-07-22T06:31:28.716Z,1014.45
2018-07-22T06:32:56.175Z,1014.46
2018-07-22T06:34:23.393Z,1014.44
2018-07-22T06:35:50.993Z,1014.45
2018-07-22T06:37:18.237Z,1014.43
2018-07-22T06:38:45.417Z,1014.43
2018-07-22T06:40:12.777Z,1014.41
2018-07-22T06:41:40.084Z,1014.44
2018-07-22T06:43:07.683Z,1014.43
2018-07-22T06:44:34.874Z,1014.42
2018-07-22T06:46:02.509Z,1014.39
2018-07-22T06:47:29.971Z,1014.37
2018-07-22T06:48:57.255Z,1014.39
2018-07-22T06:50:24.769Z,1014.36
2018-07-22T06:51:52.172Z,1014.34
2018-07-22T06:53:19.725Z,1014.34
2018-07-22T06:54:47.380Z,1014.34
2018-07-22T06:56:14.857Z,1014.36
2018-07-22T06:57:42.347Z,1014.41
2018-07-22T06:59:09.801Z,1014.38
2018-07-22T07:00:37.423Z,1014.38
2018-07-22T07:02:04.921Z,1014.35
2018-07-22T07:03:32.598Z,1014.34
2018-07-22T07:05:00.251Z,1014.33
2018-07-22T07:06:27.790Z,1014.30
2018-07-22T07:07:55.181Z,1014.30
2018-07-22T07:09:22.553Z,1014.28
2018-07-22T07:10:50.205Z,1014.30
2018-07-22T07:12:17.738Z,1014.28
2018-07-22T07:13:45.111Z,1014.28
2018-07-22T07:15:12.538Z,1014.27
2018-07-22T07:16:40.150Z,1014.24
2018-07-22T07:18:07.698Z,1014.23
2018-07-22T07:19:35.186Z,1014.23
2018-07-22T07:21:02.789Z,1014.24
2018-07-22T07:22:30.292Z,1014.22
2018-07-22T07:23:57.934Z,1014.21
2018-07-22T07:25:25.401Z,1014.21
2018-07-22T07:26:53.106Z,1014.25
2018-07-22T07:28:20.845Z,1014.23
2018-07-22T07:29:48.626Z,1014.24
2018-07-22T07:31:16.255Z,1014.26
2018-07-22T07:32:43.954Z,1014.24
2018-07-22T07:34:11.492Z,1014.22
2018-07-22T07:35:39.045Z,1014.24
2018-07-22T07:37:06.721Z,1014.25
2018-07-22T07:38:34.064Z,1014.23
2018-07-22T07:40:01.530Z,1014.26
2018-07-22T07:41:29.117Z,1014.27
2018-07-22T07:42:56.656Z,1014.27
2018-07-22T07:44:24.211Z,1014.27
2018-07-22T07:45:51.869Z,1014.28
2018-07-22T07:47:19.606Z,1014.27
2018-07-22T07:48:47.156Z,1014.28
2018-07-22T07:50:14.678Z,1014.28
2018-07-22T07:51:42.324Z,1014.29
2018-07-22T07:53:09.505Z,1014.28
2018-07-22T07:54:37.053Z,1014.27
2018-07-22T07:56:04.897Z,1014.28
2018-07-22T07:57:32.400Z,1014.23
2018-07-22T07:58:59.804Z,1014.20
2018-07-22T08:00:27.408Z,1014.20
2018-07-22T08:01:54.799Z,1014.17
2018-07-22T08:03:22.234Z,1014.19
2018-07-22T08:04:50.003Z,1014.18
2018-07-22T08:06:17.633Z,1014.22
2018-07-22T08:07:45.260Z,1014.19
2018-07-22T08:09:12.891Z,1014.19
2018-07-22T08:10:40.579Z,1014.19
2018-07-22T08:12:08.060Z,1014.18
2018-07-22T08:13:35.753Z,1014.18
2018-07-22T08:15:03.097Z,1014.16
2018-07-22T08:16:30.733Z,1014.17
2018-07-22T08:17:58.242Z,1014.15
2018-07-22T08:19:25.732Z,1014.16
2018-07-22T08:20:53.303Z,1014.15
2018-07-22T08:22:20.721Z,1014.15
2018-07-22T08:23:48.258Z,1014.14
2018-07-22T08:25:15.681Z,1014.16
2018-07-22T08:26:43.332Z,1014.16
2018-07-22T08:28:10.846Z,1014.16
2018-07-22T08:29:38.517Z,1014.16
2018-07-22T08:31:06.203Z,1014.17
2018-07-22T08:32:33.768Z,1014.18
2018-07-22T08:34:01.395Z,1014.16
2018-07-22T08:35:29.035Z,1014.17
2018-07-22T08:36:56.622Z,1014.17
2018-07-22T08:38:24.313Z,1014.16
2018-07-22T08:39:51.774Z,1014.17
2018-07-22T08:41:19.500Z,1014.18
2018-07-22T08:42:46.962Z,1014.19
2018-07-22T08:44:14.685Z,1014.18
2018-07-22T08:45:42.306Z,1014.18
2018-07-22T08:47:09.758Z,1014.19
2018-07-22T08:48:37.561Z,1014.20
2018-07-22T08:50:04.792Z,1014.18
2018-07-22T08:51:32.249Z,1014.20
2018-07-22T08:52:59.942Z,1014.18
2018-07-22T08:54:27.612Z,1014.18
2018-07-22T08:55:55.307Z,1014.20
2018-07-22T08:57:22.978Z,1014.19
2018-07-22T08:58:50.661Z,1014.17
2018-07-22T09:00:18.250Z,1014.17
2018-07-22T09:01:45.903Z,1014.19
2018-07-22T09:03:13.503Z,1014.18
2018-07-22T09:04:41.040Z,1014.16
2018-07-22T09:06:08.464Z,1014.16
2018-07-22T09:07:36.131Z,1014.17
2018-07-22T09:09:03.812Z,1014.17
2018-07-22T09:10:31.398Z,1014.18
2018-07-22T09:11:59.044Z,1014.17
2018-07-22T09:13:26.572Z,1014.17
2018-07-22T09:14:53.585Z,1014.17
2018-07-22T09:16:21.378Z,1014.18
2018-07-22T09:17:49.127Z,1014.18
2018-07-22T09:19:16.759Z,1014.18
2018-07-22T09:20:44.300Z,1014.18
2018-07-22T09:22:11.846Z,1014.17
2018-07-22T09:23:39.433Z,1014.18
2018-07-22T09:25:06.998Z,1014.20
2018-07-22T09:26:34.743Z,1014.26
2018-07-22T09:28:02.447Z,1014.23
2018-07-22T09:29:30.010Z,1014.25
2018-07-22T09:30:57.605Z,1014.27
2018-07-22T09:32:25.067Z,1014.23
2018-07-22T09:33:52.658Z,1014.23
2018-07-22T09:35:20.347Z,1014.24
2018-07-22T09:36:48.019Z,1014.23
2018-07-22T09:38:15.556Z,1014.26
2018-07-22T09:39:43.425Z,1014.24
2018-07-22T09:41:11.030Z,1014.22
2018-07-22T09:42:38.800Z,1014.21
2018-07-22T09:44:06.395Z,1014.18
2018-07-22T09:45:34.054Z,1014.19
2018-07-22T09:47:01.678Z,1014.22
2018-07-22T09:48:29.388Z,1014.18
2018-07-22T09:49:56.833Z,1014.20
2018-07-22T09:51:24.242Z,1014.19
2018-07-22T09:52:51.749Z,1014.18
2018-07-22T09:54:19.290Z,1014.17
2018-07-22T09:55:46.987Z,1014.21
2018-07-22T09:57:14.631Z,1014.18
2018-07-22T09:58:42.340Z,1014.18
2018-07-22T10:00:10.102Z,1014.19
2018-07-22T10:01:37.697Z,1014.21
2018-07-22T10:03:05.106Z,1014.20
2018-07-22T10:04:32.747Z,1014.22
2018-07-22T10:06:00.142Z,1014.20
2018-07-22T10:07:27.843Z,1014.22
2018-07-22T10:08:55.380Z,1014.22
2018-07-22T10:10:23.131Z,1014.22
2018-07-22T10:11:50.562Z,1014.22
2018-07-22T10:13:18.190Z,1014.23
2018-07-22T10:14:45.895Z,1014.23
2018-07-22T10:16:13.369Z,1014.24
2018-07-22T10:17:41.130Z,1014.23
2018-07-22T10:19:08.744Z,1014.23
2018-07-22T10:20:36.288Z,1014.21
2018-07-22T10:22:04.029Z,1014.20
2018-07-22T10:23:31.688Z,1014.22
2018-07-22T10:24:59.343Z,1014.19
2018-07-22T10:26:26.914Z,1014.17
2018-07-22T10:27:54.448Z,1014.16
2018-07-22T10:29:21.989Z,1014.12
2018-07-22T10:30:49.370Z,1014.15
2018-07-22T10:32:16.922Z,1014.14
2018-07-22T10:33:44.590Z,1014.13
2018-07-22T10:35:12.336Z,1014.10
2018-07-22T10:36:40.016Z,1014.12
2018-07-22T10:38:07.762Z,1014.11
2018-07-22T10:39:35.240Z,1014.10
2018-07-22T10:41:03.056Z,1014.12
2018-07-22T10:42:30.395Z,1014.12
2018-07-22T10:43:58.006Z,1014.11
2018-07-22T10:45:25.592Z,1014.14
2018-07-22T10:46:53.016Z,1014.11
2018-07-22T10:48:20.227Z,1014.10
2018-07-22T10:49:47.615Z,1014.10
2018-07-22T10:51:15.022Z,1014.12
2018-07-22T10:52:42.705Z,1014.09
2018-07-22T10:54:10.243Z,1014.06
2018-07-22T10:55:38.011Z,1014.03
2018-07-22T10:57:05.552Z,1014.02
2018-07-22T10:58:33.157Z,1014.03
2018-07-22T11:00:00.588Z,1014.05
2018-07-22T11:01:28.185Z,1014.01
2018-07-22T11:02:55.842Z,1014.00
2018-07-22T11:04:23.475Z,1014.05
2018-07-22T11:05:50.971Z,1014.01
2018-07-22T11:07:18.726Z,1014.02
2018-07-22T11:08:46.394Z,1013.96
2018-07-22T11:10:13.812Z,1013.97
2018-07-22T11:11:41.456Z,1013.98
2018-07-22T11:13:09.212Z,1013.99
2018-07-22T11:14:36.713Z,1013.95
2018-07-22T11:16:04.219Z,1013.97
2018-07-22T11:17:31.964Z,1014.01
2018-07-22T11:18:59.265Z,1013.99
2018-07-22T11:20:26.967Z,1014.02
2018-07-22T11:21:54.443Z,1013.98
2018-07-22T11:23:22.006Z,1013.99
2018-07-22T11:24:49.750Z,1013.97
2018-07-22T11:26:17.285Z,1013.95
2018-07-22T11:27:46.160Z,1013.92
2018-07-22T11:29:12.544Z,1013.92
2018-07-22T11:30:40.231Z,1013.95
2018-07-22T11:32:07.913Z,1013.96
2018-07-22T11:33:35.528Z,1013.92
2018-07-22T11:35:03.185Z,1013.92
2018-07-22T11:36:30.601Z,1013.94
2018-07-22T11:37:58.143Z,1013.92
2018-07-22T11:39:25.832Z,1013.94
2018-07-22T11:40:53.353Z,1013.91
2018-07-22T11:42:21.004Z,1013.90
2018-07-22T11:43:48.646Z,1013.88
2018-07-22T11:45:16.344Z,1013.91
2018-07-22T11:46:44.111Z,1013.82
2018-07-22T11:48:11.768Z,1013.79
2018-07-22T11:49:39.360Z,1013.79
2018-07-22T11:51:07.051Z,1013.79
2018-07-22T11:52:34.765Z,1013.73
2018-07-22T11:54:02.464Z,1013.73
2018-07-22T11:55:30.035Z,1013.74
2018-07-22T11:56:57.652Z,1013.72
2018-07-22T11:58:25.303Z,1013.74
2018-07-22T11:59:52.959Z,1013.75
2018-07-22T12:01:20.718Z,1013.65
2018-07-22T12:02:48.503Z,1013.66
2018-07-22T12:04:16.170Z,1013.69
2018-07-22T12:05:43.744Z,1013.67
2018-07-22T12:07:11.274Z,1013.62
2018-07-22T12:08:38.962Z,1013.60
2018-07-22T12:10:06.497Z,1013.59
2018-07-22T12:11:34.221Z,1013.60
2018-07-22T12:13:01.775Z,1013.54
2018-07-22T12:14:29.460Z,1013.55
2018-07-22T12:15:56.968Z,1013.54
2018-07-22T12:17:24.700Z,1013.56
2018-07-22T12:18:52.333Z,1013.56
2018-07-22T12:20:19.814Z,1013.51
2018-07-22T12:21:47.368Z,1013.50
2018-07-22T12:23:14.802Z,1013.45
2018-07-22T12:24:42.273Z,1013.43
2018-07-22T12:26:09.678Z,1013.46
2018-07-22T12:27:37.326Z,1013.40
2018-07-22T12:29:04.963Z,1013.39
2018-07-22T12:30:32.186Z,1013.35
2018-07-22T12:31:59.956Z,1013.37
2018-07-22T12:33:27.448Z,1013.32
2018-07-22T12:34:54.987Z,1013.28
2018-07-22T12:36:22.428Z,1013.26
2018-07-22T12:37:49.872Z,1013.24
2018-07-22T12:39:17.598Z,1013.27
2018-07-22T12:40:45.325Z,1013.20
2018-07-22T12:42:12.910Z,1013.25
2018-07-22T12:43:40.469Z,1013.24
2018-07-22T12:45:07.836Z,1013.26
2018-07-22T12:46:35.636Z,1013.27
2018-07-22T12:48:03.213Z,1013.28
2018-07-22T12:49:30.899Z,1013.26
2018-07-22T12:50:58.255Z,1013.23
2018-07-22T12:52:25.886Z,1013.20
2018-07-22T12:53:53.860Z,1013.19
2018-07-22T12:55:21.384Z,1013.19
2018-07-22T12:56:49.007Z,1013.16
2018-07-22T12:58:16.821Z,1013.11
2018-07-22T12:59:44.426Z,1013.13
2018-07-22T13:01:12.178Z,1013.12
2018-07-22T13:02:39.554Z,1013.06
2018-07-22T13:04:07.363Z,1013.07
2018-07-22T13:05:35.070Z,1013.08
2018-07-22T13:07:02.709Z,1013.10
2018-07-22T13:08:30.187Z,1013.08
2018-07-22T13:09:57.900Z,1013.06
2018-07-22T13:11:25.317Z,1013.09
2018-07-22T13:12:52.975Z,1013.08
2018-07-22T13:14:20.581Z,1013.06
2018-07-22T13:15:48.261Z,1013.08
2018-07-22T13:17:15.861Z,1013.06
2018-07-22T13:18:43.481Z,1013.09
2018-07-22T13:20:10.750Z,1013.08
2018-07-22T13:21:38.590Z,1013.06
2018-07-22T13:23:06.219Z,1013.09
2018-07-22T13:24:33.773Z,1013.05
2018-07-22T13:26:01.469Z,1013.02
2018-07-22T13:27:29.027Z,1013.00
2018-07-22T13:28:56.501Z,1013.03
2018-07-22T13:30:24.020Z,1013.01
2018-07-22T13:31:51.741Z,1012.97
2018-07-22T13:33:19.357Z,1013.01
2018-07-22T13:34:46.984Z,1013.03
2018-07-22T13:36:14.649Z,1013.04
2018-07-22T13:37:42.212Z,1013.05
2018-07-22T13:39:09.717Z,1013.06
2018-07-22T13:40:37.429Z,1013.05
2018-07-22T13:42:05.066Z,1013.04
2018-07-22T13:43:32.706Z,1012.99
2018-07-22T13:45:00.432Z,1013.02
2018-07-22T13:46:27.558Z,1012.99
2018-07-22T13:47:55.106Z,1013.03
2018-07-22T13:49:22.829Z,1013.07
2018-07-22T13:50:50.550Z,1013.13
2018-07-22T13:52:18.183Z,1013.14
2018-07-22T13:53:45.400Z,1013.23
2018-07-22T13:55:12.843Z,1013.29
2018-07-22T13:56:40.313Z,1013.39
2018-07-22T13:58:10.984Z,1013.60
2018-07-22T13:59:35.687Z,1013.73
2018-07-22T14:01:03.155Z,1013.84
2018-07-22T14:02:30.822Z,1013.89
2018-07-22T14:03:58.178Z,1013.98
2018-07-22T14:05:25.711Z,1014.03
2018-07-22T14:06:53.422Z,1014.05
2018-07-22T14:08:20.766Z,1014.08
2018-07-22T14:09:48.208Z,1014.10
2018-07-22T14:11:15.975Z,1014.20
2018-07-22T14:12:43.343Z,1014.30
2018-07-22T14:14:10.944Z,1014.35
2018-07-22T14:15:38.588Z,1014.27
2018-07-22T14:17:06.135Z,1014.34
2018-07-22T14:18:33.450Z,1014.38
2018-07-22T14:20:01.117Z,1014.49
2018-07-22T14:21:28.573Z,1014.53
2018-07-22T14:22:55.757Z,1014.52
2018-07-22T14:24:23.320Z,1014.49
2018-07-22T14:25:50.951Z,1014.47
2018-07-22T14:27:18.491Z,1014.42
2018-07-22T14:28:45.895Z,1014.40
2018-07-22T14:30:13.395Z,1014.36
2018-07-22T14:31:41.021Z,1014.36
2018-07-22T14:33:08.566Z,1014.36
2018-07-22T14:34:36.312Z,1014.31
2018-07-22T14:36:03.475Z,1014.28
2018-07-22T14:37:30.335Z,1014.27
2018-07-22T14:38:57.578Z,1014.29
2018-07-22T14:40:24.601Z,1014.34
2018-07-22T14:41:51.768Z,1014.34
2018-07-22T14:43:19.351Z,1014.35
2018-07-22T14:44:47.000Z,1014.35
2018-07-22T14:46:14.668Z,1014.38
2018-07-22T14:47:42.334Z,1014.37
2018-07-22T14:49:09.714Z,1014.37
2018-07-22T14:50:37.338Z,1014.40
2018-07-22T14:52:04.543Z,1014.44
2018-07-22T14:53:31.958Z,1014.47
2018-07-22T14:54:59.480Z,1014.51
2018-07-22T14:56:26.930Z,1014.56
2018-07-22T14:57:54.122Z,1014.59
2018-07-22T14:59:21.744Z,1014.63
2018-07-22T15:00:49.309Z,1014.63
2018-07-22T15:02:17.077Z,1014.66
2018-07-22T15:03:44.452Z,1014.69
2018-07-22T15:05:11.853Z,1014.75
2018-07-22T17:10:13.280Z,1014.65
2018-07-22T17:12:47.929Z,1014.64
2018-07-22T17:14:14.874Z,1014.65
2018-07-22T17:15:41.942Z,1014.66
2018-07-22T17:17:08.834Z,1014.67
2018-07-22T17:18:36.184Z,1014.67
2018-07-22T17:20:03.824Z,1014.67
2018-07-22T17:21:31.400Z,1014.67
2018-07-22T17:22:58.202Z,1014.71
2018-07-22T17:24:25.324Z,1014.72
2018-07-22T17:25:52.824Z,1014.74
2018-07-22T17:27:20.397Z,1014.75
2018-07-22T17:28:47.924Z,1014.72
2018-07-22T17:30:14.981Z,1014.73
2018-07-22T17:31:41.610Z,1014.71
2018-07-22T17:33:09.284Z,1014.70
2018-07-22T17:34:36.663Z,1014.71
2018-07-22T17:36:04.228Z,1014.71
2018-07-22T17:37:31.419Z,1014.72
2018-07-22T17:38:58.468Z,1014.72
2018-07-22T17:40:25.970Z,1014.73
2018-07-22T17:41:53.057Z,1014.72
2018-07-22T17:43:20.634Z,1014.73
2018-07-22T17:44:47.523Z,1014.70
2018-07-22T17:46:14.980Z,1014.73
2018-07-22T17:47:42.717Z,1014.73
2018-07-22T17:49:10.320Z,1014.73
2018-07-22T17:50:37.922Z,1014.72
2018-07-22T17:52:05.316Z,1014.72
2018-07-22T17:53:32.742Z,1014.74
2018-07-22T17:55:00.309Z,1014.73
2018-07-22T17:56:27.354Z,1014.75
2018-07-22T17:57:54.417Z,1014.75
2018-07-22T17:59:21.921Z,1014.77
2018-07-22T18:00:49.352Z,1014.78
2018-07-22T18:02:16.940Z,1014.77
2018-07-22T18:03:43.546Z,1014.76
2018-07-22T18:05:11.118Z,1014.76
2018-07-22T18:06:38.649Z,1014.80
2018-07-22T18:08:06.202Z,1014.80
2018-07-22T18:09:33.140Z,1014.78
2018-07-22T18:10:59.999Z,1014.79
2018-07-22T18:12:27.429Z,1014.78
2018-07-22T18:13:54.931Z,1014.81
2018-07-22T18:15:22.459Z,1014.81
2018-07-22T18:16:49.925Z,1014.81
2018-07-22T18:18:17.161Z,1014.82
2018-07-22T18:19:43.993Z,1014.83
2018-07-22T18:21:11.527Z,1014.85
2018-07-22T18:22:38.340Z,1014.87
2018-07-22T18:24:05.905Z,1014.89
2018-07-22T18:25:32.833Z,1014.93
2018-07-22T18:27:00.202Z,1014.94
2018-07-22T18:28:27.753Z,1014.97
2018-07-22T18:29:54.937Z,1014.98
2018-07-22T18:31:22.130Z,1015.00
2018-07-22T18:32:48.986Z,1015.00
2018-07-22T18:34:16.073Z,1015.03
2018-07-22T18:35:43.821Z,1015.05
2018-07-22T18:37:11.235Z,1015.07
2018-07-22T18:38:38.222Z,1015.10
2018-07-22T18:40:05.630Z,1015.13
2018-07-22T18:41:32.188Z,1015.18
2018-07-22T18:42:59.285Z,1015.18
2018-07-22T18:44:25.976Z,1015.21
2018-07-22T18:45:53.526Z,1015.21
2018-07-22T18:47:21.391Z,1015.23
2018-07-22T18:48:48.944Z,1015.23
2018-07-22T18:50:15.919Z,1015.22
2018-07-22T18:51:42.734Z,1015.22
2018-07-22T18:53:10.222Z,1015.20
2018-07-22T18:54:37.725Z,1015.22
2018-07-22T18:56:04.480Z,1015.23
2018-07-22T18:57:31.894Z,1015.22
2018-07-22T18:58:59.143Z,1015.24
2018-07-22T19:00:26.444Z,1015.26
2018-07-22T19:01:54.173Z,1015.27
2018-07-22T19:03:21.714Z,1015.26
2018-07-22T19:04:49.183Z,1015.27
2018-07-22T19:06:16.808Z,1015.28
2018-07-22T19:07:44.256Z,1015.31
2018-07-22T19:09:11.176Z,1015.33
2018-07-22T19:10:38.689Z,1015.36
2018-07-22T19:12:06.132Z,1015.40
2018-07-22T19:13:33.514Z,1015.42
2018-07-22T19:15:00.877Z,1015.42
2018-07-22T19:16:28.188Z,1015.43
2018-07-22T19:17:55.136Z,1015.42
2018-07-22T19:19:22.627Z,1015.41
2018-07-22T19:20:49.989Z,1015.46
2018-07-22T19:22:17.371Z,1015.48
2018-07-22T19:23:43.968Z,1015.50
2018-07-22T19:25:11.409Z,1015.56
2018-07-22T19:26:38.145Z,1015.59
2018-07-22T19:28:05.761Z,1015.61
2018-07-22T19:29:33.164Z,1015.62
2018-07-22T19:31:00.743Z,1015.63
2018-07-22T19:32:28.312Z,1015.61
2018-07-22T19:33:55.616Z,1015.65
2018-07-22T19:35:23.212Z,1015.64
2018-07-22T19:36:50.698Z,1015.64
2018-07-22T19:38:18.168Z,1015.68
2018-07-22T19:39:45.142Z,1015.72
2018-07-22T19:42:20.494Z,1015.73
2018-07-22T19:49:46.134Z,1015.79